sensor_id;sensor_type;location;lat;lon;timestamp;P1;durP1;ratioP1;P2;durP2;ratioP2
14048;SDS011;7099;53.922;10.728;2023-06-14T00:00:05;6.77;;;2.60;;
14048;SDS011;7099;53.922;10.728;2023-06-14T00:04:12;5.10;;;2.57;;
14048;SDS011;7099;53.922;10.728;2023-06-14T00:08:18;5.60;;;2.63;;
14048;SDS011;7099;53.922;10.728;2023-06-14T00:12:25;6.87;;;2.80;;
14048;SDS011;7099;53.922;10.728;2023-06-14T00:16:31;5.27;;;2.40;;
14048;SDS011;7099;53.922;10.728;2023-06-14T00:20:38;6.83;;;3.07;;
14048;SDS011;7099;53.922;10.728;2023-06-14T00:24:44;5.70;;;2.70;;
14048;SDS011;7099;53.922;10.728;2023-06-14T00:28:49;9.70;;;2.90;;
14048;SDS011;7099;53.922;10.728;2023-06-14T00:32:55;5.80;;;2.67;;
14048;SDS011;7099;53.922;10.728;2023-06-14T00:37:00;7.87;;;2.70;;
14048;SDS011;7099;53.922;10.728;2023-06-14T00:41:06;7.80;;;2.80;;
14048;SDS011;7099;53.922;10.728;2023-06-14T00:45:11;4.60;;;2.90;;
14048;SDS011;7099;53.922;10.728;2023-06-14T00:49:17;5.20;;;3.30;;
14048;SDS011;7099;53.922;10.728;2023-06-14T00:53:24;5.57;;;3.27;;
14048;SDS011;7099;53.922;10.728;2023-06-14T00:57:30;8.52;;;3.50;;
14048;SDS011;7099;53.922;10.728;2023-06-14T01:01:35;8.35;;;3.63;;
14048;SDS011;7099;53.922;10.728;2023-06-14T01:05:41;6.13;;;3.65;;
14048;SDS011;7099;53.922;10.728;2023-06-14T01:14:03;8.83;;;3.60;;
14048;SDS011;7099;53.922;10.728;2023-06-14T01:18:10;4.67;;;3.40;;
14048;SDS011;7099;53.922;10.728;2023-06-14T01:22:22;9.33;;;3.57;;
14048;SDS011;7099;53.922;10.728;2023-06-14T01:26:32;7.43;;;3.47;;
14048;SDS011;7099;53.922;10.728;2023-06-14T01:30:41;7.23;;;3.40;;
14048;SDS011;7099;53.922;10.728;2023-06-14T01:34:50;14.70;;;3.30;;
14048;SDS011;7099;53.922;10.728;2023-06-14T01:38:56;11.13;;;3.07;;
14048;SDS011;7099;53.922;10.728;2023-06-14T01:43:04;8.03;;;3.27;;
14048;SDS011;7099;53.922;10.728;2023-06-14T01:47:10;11.03;;;3.30;;
14048;SDS011;7099;53.922;10.728;2023-06-14T01:51:16;9.40;;;3.97;;
14048;SDS011;7099;53.922;10.728;2023-06-14T01:55:22;4.77;;;3.03;;
14048;SDS011;7099;53.922;10.728;2023-06-14T01:59:29;8.23;;;3.83;;
14048;SDS011;7099;53.922;10.728;2023-06-14T02:03:36;8.00;;;3.20;;
14048;SDS011;7099;53.922;10.728;2023-06-14T02:07:42;10.90;;;3.80;;
14048;SDS011;7099;53.922;10.728;2023-06-14T02:11:48;11.63;;;3.23;;
14048;SDS011;7099;53.922;10.728;2023-06-14T02:15:53;8.73;;;3.47;;
14048;SDS011;7099;53.922;10.728;2023-06-14T02:19:59;9.20;;;4.00;;
14048;SDS011;7099;53.922;10.728;2023-06-14T02:24:05;10.98;;;3.60;;
14048;SDS011;7099;53.922;10.728;2023-06-14T02:28:11;10.13;;;2.70;;
14048;SDS011;7099;53.922;10.728;2023-06-14T02:32:17;9.53;;;3.50;;
14048;SDS011;7099;53.922;10.728;2023-06-14T02:36:22;6.43;;;3.10;;
14048;SDS011;7099;53.922;10.728;2023-06-14T02:40:28;6.07;;;3.20;;
14048;SDS011;7099;53.922;10.728;2023-06-14T02:44:34;6.83;;;3.40;;
14048;SDS011;7099;53.922;10.728;2023-06-14T02:48:41;8.30;;;3.60;;
14048;SDS011;7099;53.922;10.728;2023-06-14T02:52:46;10.30;;;3.33;;
14048;SDS011;7099;53.922;10.728;2023-06-14T02:56:52;6.53;;;3.30;;
14048;SDS011;7099;53.922;10.728;2023-06-14T03:00:57;5.67;;;2.77;;
14048;SDS011;7099;53.922;10.728;2023-06-14T03:05:08;5.63;;;3.47;;
14048;SDS011;7099;53.922;10.728;2023-06-14T03:09:14;12.60;;;2.83;;
14048;SDS011;7099;53.922;10.728;2023-06-14T03:13:20;5.90;;;3.30;;
14048;SDS011;7099;53.922;10.728;2023-06-14T03:17:28;10.83;;;3.17;;
14048;SDS011;7099;53.922;10.728;2023-06-14T03:21:37;10.17;;;3.10;;
14048;SDS011;7099;53.922;10.728;2023-06-14T03:25:43;6.03;;;3.10;;
14048;SDS011;7099;53.922;10.728;2023-06-14T03:29:49;6.77;;;3.00;;
14048;SDS011;7099;53.922;10.728;2023-06-14T03:33:55;8.30;;;3.57;;
14048;SDS011;7099;53.922;10.728;2023-06-14T03:38:00;16.67;;;3.43;;
14048;SDS011;7099;53.922;10.728;2023-06-14T03:42:07;11.20;;;3.30;;
14048;SDS011;7099;53.922;10.728;2023-06-14T03:46:13;13.23;;;3.60;;
14048;SDS011;7099;53.922;10.728;2023-06-14T03:50:18;7.83;;;3.57;;
14048;SDS011;7099;53.922;10.728;2023-06-14T03:54:24;8.80;;;3.60;;
14048;SDS011;7099;53.922;10.728;2023-06-14T03:58:32;6.20;;;3.30;;
14048;SDS011;7099;53.922;10.728;2023-06-14T04:02:38;4.00;;;2.70;;
14048;SDS011;7099;53.922;10.728;2023-06-14T04:06:44;9.17;;;3.17;;
14048;SDS011;7099;53.922;10.728;2023-06-14T04:10:53;6.20;;;3.13;;
14048;SDS011;7099;53.922;10.728;2023-06-14T04:14:58;6.23;;;3.53;;
14048;SDS011;7099;53.922;10.728;2023-06-14T04:19:24;5.27;;;3.40;;
14048;SDS011;7099;53.922;10.728;2023-06-14T04:23:29;10.03;;;3.60;;
14048;SDS011;7099;53.922;10.728;2023-06-14T04:27:35;7.43;;;3.53;;
14048;SDS011;7099;53.922;10.728;2023-06-14T04:31:41;9.30;;;3.57;;
14048;SDS011;7099;53.922;10.728;2023-06-14T04:35:49;7.60;;;3.97;;
14048;SDS011;7099;53.922;10.728;2023-06-14T04:39:58;16.65;;;3.90;;
14048;SDS011;7099;53.922;10.728;2023-06-14T04:44:04;9.53;;;3.83;;
14048;SDS011;7099;53.922;10.728;2023-06-14T04:48:09;9.23;;;3.83;;
14048;SDS011;7099;53.922;10.728;2023-06-14T04:52:15;15.73;;;3.60;;
14048;SDS011;7099;53.922;10.728;2023-06-14T04:56:22;9.13;;;3.30;;
14048;SDS011;7099;53.922;10.728;2023-06-14T05:00:30;7.27;;;3.50;;
14048;SDS011;7099;53.922;10.728;2023-06-14T05:04:36;8.63;;;3.47;;
14048;SDS011;7099;53.922;10.728;2023-06-14T05:08:44;7.80;;;3.63;;
14048;SDS011;7099;53.922;10.728;2023-06-14T05:12:50;6.23;;;2.97;;
14048;SDS011;7099;53.922;10.728;2023-06-14T05:16:57;11.37;;;3.63;;
14048;SDS011;7099;53.922;10.728;2023-06-14T05:21:03;6.20;;;3.23;;
14048;SDS011;7099;53.922;10.728;2023-06-14T05:25:10;5.67;;;3.30;;
14048;SDS011;7099;53.922;10.728;2023-06-14T05:29:16;7.70;;;3.43;;
14048;SDS011;7099;53.922;10.728;2023-06-14T05:33:22;6.50;;;2.80;;
14048;SDS011;7099;53.922;10.728;2023-06-14T05:37:27;9.53;;;3.27;;
14048;SDS011;7099;53.922;10.728;2023-06-14T05:41:33;7.13;;;3.57;;
14048;SDS011;7099;53.922;10.728;2023-06-14T05:45:38;15.20;;;3.30;;
14048;SDS011;7099;53.922;10.728;2023-06-14T05:49:44;10.43;;;3.27;;
14048;SDS011;7099;53.922;10.728;2023-06-14T05:53:50;8.93;;;3.23;;
14048;SDS011;7099;53.922;10.728;2023-06-14T05:57:56;8.87;;;2.90;;
14048;SDS011;7099;53.922;10.728;2023-06-14T06:02:01;6.63;;;2.63;;
14048;SDS011;7099;53.922;10.728;2023-06-14T06:06:07;8.03;;;2.83;;
14048;SDS011;7099;53.922;10.728;2023-06-14T06:10:13;5.90;;;3.13;;
14048;SDS011;7099;53.922;10.728;2023-06-14T06:14:18;4.73;;;3.10;;
14048;SDS011;7099;53.922;10.728;2023-06-14T06:18:24;8.13;;;3.00;;
14048;SDS011;7099;53.922;10.728;2023-06-14T06:22:29;7.80;;;2.90;;
14048;SDS011;7099;53.922;10.728;2023-06-14T06:26:35;11.47;;;3.20;;
14048;SDS011;7099;53.922;10.728;2023-06-14T06:30:41;7.43;;;3.00;;
14048;SDS011;7099;53.922;10.728;2023-06-14T06:34:46;6.97;;;2.87;;
14048;SDS011;7099;53.922;10.728;2023-06-14T06:38:52;5.10;;;2.67;;
14048;SDS011;7099;53.922;10.728;2023-06-14T06:42:57;8.00;;;3.10;;
14048;SDS011;7099;53.922;10.728;2023-06-14T06:47:03;5.97;;;2.70;;
14048;SDS011;7099;53.922;10.728;2023-06-14T06:51:09;8.60;;;2.70;;
14048;SDS011;7099;53.922;10.728;2023-06-14T06:55:14;6.63;;;3.03;;
14048;SDS011;7099;53.922;10.728;2023-06-14T06:59:20;4.40;;;3.03;;
14048;SDS011;7099;53.922;10.728;2023-06-14T07:03:26;5.87;;;2.60;;
14048;SDS011;7099;53.922;10.728;2023-06-14T07:07:31;5.23;;;2.63;;
14048;SDS011;7099;53.922;10.728;2023-06-14T07:11:37;5.30;;;3.03;;
14048;SDS011;7099;53.922;10.728;2023-06-14T07:15:49;5.20;;;3.10;;
14048;SDS011;7099;53.922;10.728;2023-06-14T07:19:54;6.40;;;2.70;;
14048;SDS011;7099;53.922;10.728;2023-06-14T07:24:00;4.50;;;3.10;;
14048;SDS011;7099;53.922;10.728;2023-06-14T07:28:06;7.40;;;2.50;;
14048;SDS011;7099;53.922;10.728;2023-06-14T07:32:12;9.33;;;2.60;;
14048;SDS011;7099;53.922;10.728;2023-06-14T07:36:17;7.03;;;2.90;;
14048;SDS011;7099;53.922;10.728;2023-06-14T07:40:23;6.37;;;2.60;;
14048;SDS011;7099;53.922;10.728;2023-06-14T07:44:29;3.90;;;2.77;;
14048;SDS011;7099;53.922;10.728;2023-06-14T07:48:37;7.60;;;2.70;;
14048;SDS011;7099;53.922;10.728;2023-06-14T07:52:43;5.53;;;2.47;;
14048;SDS011;7099;53.922;10.728;2023-06-14T07:56:50;5.57;;;2.53;;
14048;SDS011;7099;53.922;10.728;2023-06-14T08:00:56;11.33;;;2.40;;
14048;SDS011;7099;53.922;10.728;2023-06-14T08:05:01;8.67;;;3.20;;
14048;SDS011;7099;53.922;10.728;2023-06-14T08:09:07;4.53;;;2.30;;
14048;SDS011;7099;53.922;10.728;2023-06-14T08:13:12;5.80;;;2.63;;
14048;SDS011;7099;53.922;10.728;2023-06-14T08:17:18;5.67;;;2.90;;
14048;SDS011;7099;53.922;10.728;2023-06-14T08:21:24;5.70;;;2.83;;
14048;SDS011;7099;53.922;10.728;2023-06-14T08:25:32;8.40;;;3.03;;
14048;SDS011;7099;53.922;10.728;2023-06-14T08:29:37;6.80;;;2.70;;
14048;SDS011;7099;53.922;10.728;2023-06-14T08:33:45;7.77;;;2.40;;
14048;SDS011;7099;53.922;10.728;2023-06-14T08:37:51;6.27;;;2.57;;
14048;SDS011;7099;53.922;10.728;2023-06-14T08:41:56;10.90;;;2.87;;
14048;SDS011;7099;53.922;10.728;2023-06-14T08:46:02;4.90;;;2.60;;
14048;SDS011;7099;53.922;10.728;2023-06-14T08:50:09;6.80;;;2.73;;
14048;SDS011;7099;53.922;10.728;2023-06-14T08:54:32;6.33;;;2.40;;
14048;SDS011;7099;53.922;10.728;2023-06-14T08:58:42;7.27;;;2.97;;
14048;SDS011;7099;53.922;10.728;2023-06-14T09:02:50;4.27;;;2.33;;
14048;SDS011;7099;53.922;10.728;2023-06-14T09:07:00;5.23;;;2.47;;
14048;SDS011;7099;53.922;10.728;2023-06-14T09:11:05;4.90;;;2.17;;
14048;SDS011;7099;53.922;10.728;2023-06-14T09:15:11;7.63;;;2.47;;
14048;SDS011;7099;53.922;10.728;2023-06-14T09:19:22;3.40;;;2.47;;
14048;SDS011;7099;53.922;10.728;2023-06-14T09:23:29;6.40;;;2.50;;
14048;SDS011;7099;53.922;10.728;2023-06-14T09:27:46;3.40;;;2.20;;
14048;SDS011;7099;53.922;10.728;2023-06-14T09:31:52;4.70;;;2.57;;
14048;SDS011;7099;53.922;10.728;2023-06-14T09:35:58;4.73;;;2.50;;
14048;SDS011;7099;53.922;10.728;2023-06-14T09:40:04;6.50;;;2.20;;
14048;SDS011;7099;53.922;10.728;2023-06-14T09:44:11;4.07;;;3.07;;
14048;SDS011;7099;53.922;10.728;2023-06-14T09:48:24;5.20;;;3.00;;
14048;SDS011;7099;53.922;10.728;2023-06-14T09:52:30;4.10;;;2.70;;
14048;SDS011;7099;53.922;10.728;2023-06-14T09:56:41;3.90;;;2.50;;
14048;SDS011;7099;53.922;10.728;2023-06-14T10:00:50;8.33;;;2.40;;
14048;SDS011;7099;53.922;10.728;2023-06-14T10:05:03;4.00;;;2.60;;
14048;SDS011;7099;53.922;10.728;2023-06-14T10:09:11;9.17;;;2.57;;
14048;SDS011;7099;53.922;10.728;2023-06-14T10:13:19;7.67;;;2.47;;
14048;SDS011;7099;53.922;10.728;2023-06-14T10:21:55;6.03;;;2.40;;
14048;SDS011;7099;53.922;10.728;2023-06-14T10:26:18;8.93;;;2.60;;
14048;SDS011;7099;53.922;10.728;2023-06-14T10:30:26;5.40;;;2.53;;
14048;SDS011;7099;53.922;10.728;2023-06-14T10:34:32;6.03;;;2.50;;
14048;SDS011;7099;53.922;10.728;2023-06-14T10:38:37;6.73;;;2.50;;
14048;SDS011;7099;53.922;10.728;2023-06-14T10:42:51;7.33;;;2.57;;
14048;SDS011;7099;53.922;10.728;2023-06-14T10:47:00;5.50;;;2.40;;
14048;SDS011;7099;53.922;10.728;2023-06-14T10:51:05;7.03;;;2.50;;
14048;SDS011;7099;53.922;10.728;2023-06-14T10:55:15;10.00;;;2.50;;
14048;SDS011;7099;53.922;10.728;2023-06-14T10:59:24;6.67;;;2.40;;
14048;SDS011;7099;53.922;10.728;2023-06-14T11:03:39;4.67;;;2.73;;
14048;SDS011;7099;53.922;10.728;2023-06-14T11:08:24;3.30;;;2.10;;
14048;SDS011;7099;53.922;10.728;2023-06-14T11:12:45;7.43;;;2.40;;
14048;SDS011;7099;53.922;10.728;2023-06-14T11:16:53;8.10;;;2.60;;
14048;SDS011;7099;53.922;10.728;2023-06-14T11:20:59;3.23;;;2.07;;
14048;SDS011;7099;53.922;10.728;2023-06-14T11:25:07;4.77;;;2.50;;
14048;SDS011;7099;53.922;10.728;2023-06-14T11:29:15;5.43;;;2.50;;
14048;SDS011;7099;53.922;10.728;2023-06-14T11:33:21;7.83;;;2.33;;
14048;SDS011;7099;53.922;10.728;2023-06-14T11:37:28;13.27;;;2.23;;
14048;SDS011;7099;53.922;10.728;2023-06-14T11:45:50;7.03;;;2.57;;
14048;SDS011;7099;53.922;10.728;2023-06-14T11:50:11;5.60;;;1.90;;
14048;SDS011;7099;53.922;10.728;2023-06-14T11:54:17;5.60;;;2.33;;
14048;SDS011;7099;53.922;10.728;2023-06-14T11:58:23;3.87;;;2.43;;
14048;SDS011;7099;53.922;10.728;2023-06-14T12:02:28;5.60;;;2.40;;
14048;SDS011;7099;53.922;10.728;2023-06-14T12:06:36;5.20;;;2.10;;
14048;SDS011;7099;53.922;10.728;2023-06-14T12:10:44;5.93;;;2.23;;
14048;SDS011;7099;53.922;10.728;2023-06-14T12:14:50;6.20;;;2.37;;
14048;SDS011;7099;53.922;10.728;2023-06-14T12:18:56;5.13;;;2.67;;
14048;SDS011;7099;53.922;10.728;2023-06-14T12:23:07;5.00;;;2.50;;
14048;SDS011;7099;53.922;10.728;2023-06-14T12:27:13;10.47;;;3.30;;
14048;SDS011;7099;53.922;10.728;2023-06-14T12:31:20;5.20;;;2.47;;
14048;SDS011;7099;53.922;10.728;2023-06-14T12:35:26;10.03;;;2.40;;
14048;SDS011;7099;53.922;10.728;2023-06-14T12:39:32;8.00;;;2.57;;
14048;SDS011;7099;53.922;10.728;2023-06-14T12:43:38;9.20;;;2.40;;
14048;SDS011;7099;53.922;10.728;2023-06-14T12:47:43;3.93;;;2.37;;
14048;SDS011;7099;53.922;10.728;2023-06-14T12:51:49;6.73;;;2.10;;
14048;SDS011;7099;53.922;10.728;2023-06-14T12:55:54;4.80;;;2.20;;
14048;SDS011;7099;53.922;10.728;2023-06-14T13:00:00;5.47;;;2.37;;
14048;SDS011;7099;53.922;10.728;2023-06-14T13:04:06;4.57;;;2.10;;
14048;SDS011;7099;53.922;10.728;2023-06-14T13:08:11;5.57;;;2.27;;
14048;SDS011;7099;53.922;10.728;2023-06-14T13:12:18;11.03;;;2.10;;
14048;SDS011;7099;53.922;10.728;2023-06-14T13:16:23;4.50;;;2.17;;
14048;SDS011;7099;53.922;10.728;2023-06-14T13:20:29;5.97;;;1.90;;
14048;SDS011;7099;53.922;10.728;2023-06-14T13:24:34;6.20;;;2.10;;
14048;SDS011;7099;53.922;10.728;2023-06-14T13:28:40;5.97;;;2.70;;
14048;SDS011;7099;53.922;10.728;2023-06-14T13:32:46;4.43;;;2.07;;
14048;SDS011;7099;53.922;10.728;2023-06-14T13:36:54;3.23;;;1.80;;
14048;SDS011;7099;53.922;10.728;2023-06-14T13:41:00;5.03;;;1.90;;
14048;SDS011;7099;53.922;10.728;2023-06-14T13:45:06;7.97;;;2.40;;
14048;SDS011;7099;53.922;10.728;2023-06-14T13:49:13;7.13;;;2.20;;
14048;SDS011;7099;53.922;10.728;2023-06-14T13:53:18;2.23;;;2.00;;
14048;SDS011;7099;53.922;10.728;2023-06-14T13:57:24;6.83;;;1.80;;
14048;SDS011;7099;53.922;10.728;2023-06-14T14:01:30;5.30;;;2.23;;
14048;SDS011;7099;53.922;10.728;2023-06-14T14:05:36;5.00;;;2.00;;
14048;SDS011;7099;53.922;10.728;2023-06-14T14:09:41;6.50;;;1.90;;
14048;SDS011;7099;53.922;10.728;2023-06-14T14:13:48;2.87;;;2.07;;
14048;SDS011;7099;53.922;10.728;2023-06-14T14:17:55;3.53;;;2.10;;
14048;SDS011;7099;53.922;10.728;2023-06-14T14:22:02;5.07;;;2.30;;
14048;SDS011;7099;53.922;10.728;2023-06-14T14:26:08;4.07;;;1.80;;
14048;SDS011;7099;53.922;10.728;2023-06-14T14:30:14;8.37;;;2.27;;
14048;SDS011;7099;53.922;10.728;2023-06-14T14:34:22;6.83;;;2.50;;
14048;SDS011;7099;53.922;10.728;2023-06-14T14:38:29;7.40;;;2.20;;
14048;SDS011;7099;53.922;10.728;2023-06-14T14:42:35;6.93;;;2.00;;
14048;SDS011;7099;53.922;10.728;2023-06-14T14:46:41;8.70;;;2.03;;
14048;SDS011;7099;53.922;10.728;2023-06-14T14:50:48;6.23;;;2.07;;
14048;SDS011;7099;53.922;10.728;2023-06-14T14:54:54;2.03;;;1.63;;
14048;SDS011;7099;53.922;10.728;2023-06-14T14:59:00;19.73;;;2.67;;
14048;SDS011;7099;53.922;10.728;2023-06-14T15:03:07;3.73;;;1.80;;
14048;SDS011;7099;53.922;10.728;2023-06-14T15:07:13;2.93;;;1.90;;
14048;SDS011;7099;53.922;10.728;2023-06-14T15:11:18;8.90;;;1.93;;
14048;SDS011;7099;53.922;10.728;2023-06-14T15:15:24;3.03;;;1.73;;
14048;SDS011;7099;53.922;10.728;2023-06-14T15:19:29;18.10;;;2.40;;
14048;SDS011;7099;53.922;10.728;2023-06-14T15:23:35;9.27;;;1.90;;
14048;SDS011;7099;53.922;10.728;2023-06-14T15:27:40;7.50;;;1.90;;
14048;SDS011;7099;53.922;10.728;2023-06-14T15:31:46;10.63;;;2.07;;
14048;SDS011;7099;53.922;10.728;2023-06-14T15:35:53;3.60;;;2.03;;
14048;SDS011;7099;53.922;10.728;2023-06-14T15:39:59;5.43;;;2.13;;
14048;SDS011;7099;53.922;10.728;2023-06-14T15:44:05;4.17;;;2.13;;
14048;SDS011;7099;53.922;10.728;2023-06-14T15:48:11;2.50;;;2.00;;
14048;SDS011;7099;53.922;10.728;2023-06-14T15:52:17;3.70;;;1.80;;
14048;SDS011;7099;53.922;10.728;2023-06-14T15:56:23;3.20;;;1.83;;
14048;SDS011;7099;53.922;10.728;2023-06-14T16:00:28;5.33;;;1.90;;
14048;SDS011;7099;53.922;10.728;2023-06-14T16:04:34;4.20;;;2.20;;
14048;SDS011;7099;53.922;10.728;2023-06-14T16:08:39;4.13;;;1.80;;
14048;SDS011;7099;53.922;10.728;2023-06-14T16:12:45;2.60;;;1.67;;
14048;SDS011;7099;53.922;10.728;2023-06-14T16:16:51;4.43;;;1.97;;
14048;SDS011;7099;53.922;10.728;2023-06-14T16:20:57;3.43;;;2.13;;
14048;SDS011;7099;53.922;10.728;2023-06-14T16:25:03;4.40;;;1.83;;
14048;SDS011;7099;53.922;10.728;2023-06-14T16:29:09;7.93;;;2.20;;
14048;SDS011;7099;53.922;10.728;2023-06-14T16:33:15;3.50;;;1.63;;
14048;SDS011;7099;53.922;10.728;2023-06-14T16:37:21;3.40;;;1.90;;
14048;SDS011;7099;53.922;10.728;2023-06-14T16:41:26;3.60;;;1.97;;
14048;SDS011;7099;53.922;10.728;2023-06-14T16:45:32;7.23;;;2.07;;
14048;SDS011;7099;53.922;10.728;2023-06-14T16:49:38;4.30;;;1.80;;
14048;SDS011;7099;53.922;10.728;2023-06-14T16:53:43;2.10;;;1.83;;
14048;SDS011;7099;53.922;10.728;2023-06-14T16:57:49;4.20;;;1.93;;
14048;SDS011;7099;53.922;10.728;2023-06-14T17:02:00;7.60;;;2.20;;
14048;SDS011;7099;53.922;10.728;2023-06-14T17:06:10;20.67;;;2.60;;
14048;SDS011;7099;53.922;10.728;2023-06-14T17:10:16;4.73;;;2.17;;
14048;SDS011;7099;53.922;10.728;2023-06-14T17:14:22;4.80;;;2.00;;
14048;SDS011;7099;53.922;10.728;2023-06-14T17:18:29;7.30;;;2.37;;
14048;SDS011;7099;53.922;10.728;2023-06-14T17:22:34;4.43;;;2.43;;
14048;SDS011;7099;53.922;10.728;2023-06-14T17:26:40;1.90;;;1.70;;
14048;SDS011;7099;53.922;10.728;2023-06-14T17:30:46;7.83;;;2.03;;
14048;SDS011;7099;53.922;10.728;2023-06-14T17:34:52;5.10;;;2.30;;
14048;SDS011;7099;53.922;10.728;2023-06-14T17:38:57;3.10;;;1.80;;
14048;SDS011;7099;53.922;10.728;2023-06-14T17:43:02;3.80;;;1.90;;
14048;SDS011;7099;53.922;10.728;2023-06-14T17:47:08;5.20;;;2.03;;
14048;SDS011;7099;53.922;10.728;2023-06-14T17:51:24;6.77;;;1.87;;
14048;SDS011;7099;53.922;10.728;2023-06-14T17:55:30;11.90;;;2.10;;
14048;SDS011;7099;53.922;10.728;2023-06-14T17:59:36;7.90;;;2.03;;
14048;SDS011;7099;53.922;10.728;2023-06-14T18:03:41;2.20;;;1.60;;
14048;SDS011;7099;53.922;10.728;2023-06-14T18:07:47;6.53;;;2.43;;
14048;SDS011;7099;53.922;10.728;2023-06-14T18:11:53;3.30;;;1.90;;
14048;SDS011;7099;53.922;10.728;2023-06-14T18:16:00;5.30;;;2.30;;
14048;SDS011;7099;53.922;10.728;2023-06-14T18:20:06;3.67;;;2.00;;
14048;SDS011;7099;53.922;10.728;2023-06-14T18:24:13;10.13;;;2.63;;
14048;SDS011;7099;53.922;10.728;2023-06-14T18:28:19;5.47;;;2.40;;
14048;SDS011;7099;53.922;10.728;2023-06-14T18:32:24;2.60;;;1.80;;
14048;SDS011;7099;53.922;10.728;2023-06-14T18:36:32;4.70;;;2.10;;
14048;SDS011;7099;53.922;10.728;2023-06-14T18:40:38;12.80;;;1.93;;
14048;SDS011;7099;53.922;10.728;2023-06-14T18:44:43;4.70;;;2.00;;
14048;SDS011;7099;53.922;10.728;2023-06-14T18:48:49;18.77;;;4.97;;
14048;SDS011;7099;53.922;10.728;2023-06-14T18:52:55;3.30;;;2.20;;
14048;SDS011;7099;53.922;10.728;2023-06-14T18:57:01;6.73;;;2.33;;
14048;SDS011;7099;53.922;10.728;2023-06-14T19:01:07;7.90;;;1.90;;
14048;SDS011;7099;53.922;10.728;2023-06-14T19:05:13;4.47;;;1.87;;
14048;SDS011;7099;53.922;10.728;2023-06-14T19:09:19;11.07;;;2.20;;
14048;SDS011;7099;53.922;10.728;2023-06-14T19:13:25;5.37;;;2.17;;
14048;SDS011;7099;53.922;10.728;2023-06-14T19:17:33;10.13;;;2.23;;
14048;SDS011;7099;53.922;10.728;2023-06-14T19:21:38;10.67;;;2.60;;
14048;SDS011;7099;53.922;10.728;2023-06-14T19:25:44;3.80;;;2.27;;
14048;SDS011;7099;53.922;10.728;2023-06-14T19:29:50;3.87;;;2.47;;
14048;SDS011;7099;53.922;10.728;2023-06-14T19:33:56;3.47;;;2.10;;
14048;SDS011;7099;53.922;10.728;2023-06-14T19:38:02;5.80;;;2.20;;
14048;SDS011;7099;53.922;10.728;2023-06-14T19:42:08;3.30;;;2.07;;
14048;SDS011;7099;53.922;10.728;2023-06-14T19:46:13;2.73;;;2.20;;
14048;SDS011;7099;53.922;10.728;2023-06-14T19:50:21;5.63;;;2.33;;
14048;SDS011;7099;53.922;10.728;2023-06-14T19:54:27;6.70;;;2.17;;
14048;SDS011;7099;53.922;10.728;2023-06-14T19:58:33;3.60;;;2.03;;
14048;SDS011;7099;53.922;10.728;2023-06-14T20:02:38;2.77;;;2.00;;
14048;SDS011;7099;53.922;10.728;2023-06-14T20:06:44;3.30;;;2.30;;
14048;SDS011;7099;53.922;10.728;2023-06-14T20:10:50;6.93;;;2.40;;
14048;SDS011;7099;53.922;10.728;2023-06-14T20:14:57;4.67;;;2.60;;
14048;SDS011;7099;53.922;10.728;2023-06-14T20:19:02;2.80;;;2.40;;
14048;SDS011;7099;53.922;10.728;2023-06-14T20:23:08;6.10;;;2.50;;
14048;SDS011;7099;53.922;10.728;2023-06-14T20:27:13;3.40;;;2.50;;
14048;SDS011;7099;53.922;10.728;2023-06-14T20:31:21;3.20;;;2.27;;
14048;SDS011;7099;53.922;10.728;2023-06-14T20:35:27;6.10;;;2.40;;
14048;SDS011;7099;53.922;10.728;2023-06-14T20:39:33;3.57;;;2.53;;
14048;SDS011;7099;53.922;10.728;2023-06-14T20:43:38;5.47;;;2.40;;
14048;SDS011;7099;53.922;10.728;2023-06-14T20:47:44;8.00;;;2.70;;
14048;SDS011;7099;53.922;10.728;2023-06-14T20:51:50;5.53;;;2.20;;
14048;SDS011;7099;53.922;10.728;2023-06-14T20:55:57;8.03;;;2.70;;
14048;SDS011;7099;53.922;10.728;2023-06-14T21:00:03;6.10;;;2.60;;
14048;SDS011;7099;53.922;10.728;2023-06-14T21:04:15;6.50;;;2.57;;
14048;SDS011;7099;53.922;10.728;2023-06-14T21:08:21;4.80;;;2.50;;
14048;SDS011;7099;53.922;10.728;2023-06-14T21:12:27;4.60;;;2.80;;
14048;SDS011;7099;53.922;10.728;2023-06-14T21:16:32;6.37;;;2.43;;
14048;SDS011;7099;53.922;10.728;2023-06-14T21:20:38;4.50;;;2.27;;
14048;SDS011;7099;53.922;10.728;2023-06-14T21:24:43;4.50;;;2.50;;
14048;SDS011;7099;53.922;10.728;2023-06-14T21:28:49;6.97;;;2.37;;
14048;SDS011;7099;53.922;10.728;2023-06-14T21:32:55;6.80;;;2.43;;
14048;SDS011;7099;53.922;10.728;2023-06-14T21:37:00;5.53;;;2.60;;
14048;SDS011;7099;53.922;10.728;2023-06-14T21:41:06;4.23;;;2.30;;
14048;SDS011;7099;53.922;10.728;2023-06-14T21:45:12;3.83;;;2.20;;
14048;SDS011;7099;53.922;10.728;2023-06-14T21:49:17;5.37;;;2.53;;
14048;SDS011;7099;53.922;10.728;2023-06-14T21:53:23;3.73;;;2.60;;
14048;SDS011;7099;53.922;10.728;2023-06-14T21:57:28;6.37;;;3.00;;
14048;SDS011;7099;53.922;10.728;2023-06-14T22:01:34;6.70;;;2.83;;
14048;SDS011;7099;53.922;10.728;2023-06-14T22:05:40;6.53;;;2.63;;
14048;SDS011;7099;53.922;10.728;2023-06-14T22:09:46;2.90;;;2.33;;
14048;SDS011;7099;53.922;10.728;2023-06-14T22:13:53;5.53;;;2.83;;
14048;SDS011;7099;53.922;10.728;2023-06-14T22:17:59;3.10;;;2.53;;
14048;SDS011;7099;53.922;10.728;2023-06-14T22:22:05;7.37;;;2.90;;
14048;SDS011;7099;53.922;10.728;2023-06-14T22:26:12;3.93;;;2.83;;
14048;SDS011;7099;53.922;10.728;2023-06-14T22:30:24;4.27;;;2.53;;
14048;SDS011;7099;53.922;10.728;2023-06-14T22:34:32;8.43;;;3.00;;
14048;SDS011;7099;53.922;10.728;2023-06-14T22:38:43;6.63;;;2.60;;
14048;SDS011;7099;53.922;10.728;2023-06-14T22:42:52;5.30;;;2.40;;
14048;SDS011;7099;53.922;10.728;2023-06-14T22:46:58;7.63;;;2.60;;
14048;SDS011;7099;53.922;10.728;2023-06-14T22:51:04;7.00;;;2.50;;
14048;SDS011;7099;53.922;10.728;2023-06-14T22:55:10;6.33;;;2.47;;
14048;SDS011;7099;53.922;10.728;2023-06-14T22:59:16;6.40;;;2.50;;
14048;SDS011;7099;53.922;10.728;2023-06-14T23:03:22;5.90;;;3.00;;
14048;SDS011;7099;53.922;10.728;2023-06-14T23:07:28;3.03;;;2.03;;
14048;SDS011;7099;53.922;10.728;2023-06-14T23:11:34;2.60;;;2.37;;
14048;SDS011;7099;53.922;10.728;2023-06-14T23:15:40;3.23;;;2.60;;
14048;SDS011;7099;53.922;10.728;2023-06-14T23:19:46;9.23;;;2.63;;
14048;SDS011;7099;53.922;10.728;2023-06-14T23:23:51;6.53;;;2.70;;
14048;SDS011;7099;53.922;10.728;2023-06-14T23:27:59;4.77;;;2.30;;
14048;SDS011;7099;53.922;10.728;2023-06-14T23:32:08;4.70;;;2.87;;
14048;SDS011;7099;53.922;10.728;2023-06-14T23:36:14;4.13;;;2.80;;
14048;SDS011;7099;53.922;10.728;2023-06-14T23:40:20;6.33;;;2.73;;
14048;SDS011;7099;53.922;10.728;2023-06-14T23:44:25;9.63;;;3.07;;
14048;SDS011;7099;53.922;10.728;2023-06-14T23:48:32;4.53;;;3.00;;
14048;SDS011;7099;53.922;10.728;2023-06-14T23:52:38;3.95;;;2.80;;
14048;SDS011;7099;53.922;10.728;2023-06-14T23:56:44;5.10;;;2.97;;
